sensor_id;sensor_type;location;lat;lon;timestamp;pressure;altitude;pressure_sealevel;temperature;humidity
17821;BME280;9035;42.554;23.188;2022-08-21T00:00:00;89583.03;;;19.78;78.89
17821;BME280;9035;42.554;23.188;2022-08-21T00:02:28;89584.94;;;19.70;79.37
17821;BME280;9035;42.554;23.188;2022-08-21T00:04:55;89581.56;;;19.73;79.69
17821;BME280;9035;42.554;23.188;2022-08-21T00:07:22;89575.75;;;19.99;78.05
17821;BME280;9035;42.554;23.188;2022-08-21T00:09:49;89567.81;;;20.03;77.45
17821;BME280;9035;42.554;23.188;2022-08-21T00:12:15;89569.75;;;19.99;76.88
17821;BME280;9035;42.554;23.188;2022-08-21T00:14:42;89576.91;;;19.91;76.93
17821;BME280;9035;42.554;23.188;2022-08-21T00:17:09;89561.97;;;19.78;77.85
17821;BME280;9035;42.554;23.188;2022-08-21T00:19:37;89581.53;;;19.77;77.87
17821;BME280;9035;42.554;23.188;2022-08-21T00:22:04;89592.78;;;19.77;78.29
17821;BME280;9035;42.554;23.188;2022-08-21T00:24:31;89591.66;;;19.78;78.58
17821;BME280;9035;42.554;23.188;2022-08-21T00:26:58;89584.44;;;19.93;77.18
17821;BME280;9035;42.554;23.188;2022-08-21T00:29:24;89583.34;;;19.83;76.94
17821;BME280;9035;42.554;23.188;2022-08-21T00:31:51;89577.69;;;19.88;76.12
17821;BME280;9035;42.554;23.188;2022-08-21T00:34:18;89580.28;;;19.92;75.91
17821;BME280;9035;42.554;23.188;2022-08-21T00:36:46;89587.09;;;19.89;76.24
17821;BME280;9035;42.554;23.188;2022-08-21T00:39:13;89583.69;;;19.89;75.87
17821;BME280;9035;42.554;23.188;2022-08-21T00:41:41;89587.13;;;19.86;76.35
17821;BME280;9035;42.554;23.188;2022-08-21T00:44:11;89547.03;;;19.64;76.51
17821;BME280;9035;42.554;23.188;2022-08-21T00:46:39;89581.88;;;19.79;76.30
17821;BME280;9035;42.554;23.188;2022-08-21T00:49:07;89583.75;;;19.78;76.31
17821;BME280;9035;42.554;23.188;2022-08-21T00:51:38;89580.06;;;19.72;76.81
17821;BME280;9035;42.554;23.188;2022-08-21T00:54:08;89555.22;;;19.77;75.61
17821;BME280;9035;42.554;23.188;2022-08-21T00:56:36;89573.59;;;19.80;75.38
17821;BME280;9035;42.554;23.188;2022-08-21T00:59:03;89564.94;;;19.80;75.34
17821;BME280;9035;42.554;23.188;2022-08-21T01:01:31;89560.47;;;19.77;75.82
17821;BME280;9035;42.554;23.188;2022-08-21T01:03:58;89558.59;;;19.77;75.52
17821;BME280;9035;42.554;23.188;2022-08-21T01:06:25;89551.84;;;19.73;76.49
17821;BME280;9035;42.554;23.188;2022-08-21T01:08:52;89555.59;;;19.75;76.13
17821;BME280;9035;42.554;23.188;2022-08-21T01:11:20;89554.44;;;19.80;75.27
17821;BME280;9035;42.554;23.188;2022-08-21T01:13:48;89549.19;;;19.76;75.52
17821;BME280;9035;42.554;23.188;2022-08-21T01:16:18;89541.72;;;19.71;75.70
17821;BME280;9035;42.554;23.188;2022-08-21T01:18:47;89543.94;;;19.76;75.50
17821;BME280;9035;42.554;23.188;2022-08-21T01:21:18;89544.28;;;19.78;75.48
17821;BME280;9035;42.554;23.188;2022-08-21T01:23:48;89545.81;;;19.76;75.35
17821;BME280;9035;42.554;23.188;2022-08-21T01:26:17;89537.53;;;19.77;75.35
17821;BME280;9035;42.554;23.188;2022-08-21T01:28:47;89541.28;;;19.80;74.92
17821;BME280;9035;42.554;23.188;2022-08-21T01:31:17;89538.41;;;19.60;75.25
17821;BME280;9035;42.554;23.188;2022-08-21T01:33:46;89537.59;;;19.70;75.04
17821;BME280;9035;42.554;23.188;2022-08-21T01:36:13;89534.97;;;19.67;75.33
17821;BME280;9035;42.554;23.188;2022-08-21T01:38:41;89537.94;;;19.76;74.75
17821;BME280;9035;42.554;23.188;2022-08-21T01:41:08;89546.59;;;19.73;74.80
17821;BME280;9035;42.554;23.188;2022-08-21T01:43:35;89545.13;;;19.65;75.08
17821;BME280;9035;42.554;23.188;2022-08-21T01:46:02;89543.25;;;19.65;75.53
17821;BME280;9035;42.554;23.188;2022-08-21T01:48:29;89549.28;;;19.62;75.29
17821;BME280;9035;42.554;23.188;2022-08-21T01:50:56;89547.41;;;19.59;75.60
17821;BME280;9035;42.554;23.188;2022-08-21T01:53:23;89543.66;;;19.60;74.95
17821;BME280;9035;42.554;23.188;2022-08-21T01:55:51;89546.28;;;19.60;74.56
17821;BME280;9035;42.554;23.188;2022-08-21T01:58:18;89554.91;;;19.68;74.04
17821;BME280;9035;42.554;23.188;2022-08-21T02:00:45;89537.25;;;19.61;74.67
17821;BME280;9035;42.554;23.188;2022-08-21T02:03:12;89535.84;;;19.50;75.78
17821;BME280;9035;42.554;23.188;2022-08-21T02:05:39;89545.28;;;19.44;75.75
17821;BME280;9035;42.554;23.188;2022-08-21T02:08:06;89542.22;;;19.49;75.82
17821;BME280;9035;42.554;23.188;2022-08-21T02:10:33;89553.44;;;19.60;74.52
17821;BME280;9035;42.554;23.188;2022-08-21T02:13:01;89556.81;;;19.60;74.03
17821;BME280;9035;42.554;23.188;2022-08-21T02:15:29;89559.13;;;19.48;74.91
17821;BME280;9035;42.554;23.188;2022-08-21T02:17:58;89556.13;;;19.46;75.10
17821;BME280;9035;42.554;23.188;2022-08-21T02:20:27;89553.91;;;19.41;75.28
17821;BME280;9035;42.554;23.188;2022-08-21T02:22:54;89549.03;;;19.43;75.15
17821;BME280;9035;42.554;23.188;2022-08-21T02:25:23;89554.66;;;19.41;75.20
17821;BME280;9035;42.554;23.188;2022-08-21T02:27:50;89552.03;;;19.38;74.83
17821;BME280;9035;42.554;23.188;2022-08-21T02:30:21;89549.09;;;19.29;75.03
17821;BME280;9035;42.554;23.188;2022-08-21T02:32:48;89561.47;;;19.32;74.77
17821;BME280;9035;42.554;23.188;2022-08-21T02:35:15;89563.69;;;19.37;74.43
17821;BME280;9035;42.554;23.188;2022-08-21T02:37:46;89542.38;;;19.25;74.97
17821;BME280;9035;42.554;23.188;2022-08-21T02:40:14;89545.78;;;19.15;75.41
17821;BME280;9035;42.554;23.188;2022-08-21T02:42:41;89543.88;;;19.22;74.86
17821;BME280;9035;42.554;23.188;2022-08-21T02:45:09;89549.13;;;19.19;74.82
17821;BME280;9035;42.554;23.188;2022-08-21T02:47:38;89542.81;;;19.06;75.80
17821;BME280;9035;42.554;23.188;2022-08-21T02:50:06;89553.28;;;19.09;75.44
17821;BME280;9035;42.554;23.188;2022-08-21T02:52:33;89536.38;;;19.17;75.15
17821;BME280;9035;42.554;23.188;2022-08-21T02:55:00;89532.63;;;19.18;75.63
17821;BME280;9035;42.554;23.188;2022-08-21T02:57:27;89537.94;;;19.11;76.23
17821;BME280;9035;42.554;23.188;2022-08-21T02:59:54;89546.13;;;19.24;75.57
17821;BME280;9035;42.554;23.188;2022-08-21T03:02:20;89546.56;;;19.12;76.41
17821;BME280;9035;42.554;23.188;2022-08-21T03:04:49;89550.28;;;19.14;75.83
17821;BME280;9035;42.554;23.188;2022-08-21T03:07:16;89551.06;;;18.97;76.76
17821;BME280;9035;42.554;23.188;2022-08-21T03:09:42;89557.47;;;19.03;76.66
17821;BME280;9035;42.554;23.188;2022-08-21T03:12:09;89561.19;;;19.13;76.21
17821;BME280;9035;42.554;23.188;2022-08-21T03:14:36;89547.28;;;19.09;76.45
17821;BME280;9035;42.554;23.188;2022-08-21T03:17:04;89545.41;;;19.16;76.58
17821;BME280;9035;42.554;23.188;2022-08-21T03:19:30;89554.03;;;19.20;76.13
17821;BME280;9035;42.554;23.188;2022-08-21T03:21:59;89542.03;;;19.16;76.47
17821;BME280;9035;42.554;23.188;2022-08-21T03:24:26;89538.66;;;19.05;76.49
17821;BME280;9035;42.554;23.188;2022-08-21T03:26:52;89534.50;;;19.18;76.36
17821;BME280;9035;42.554;23.188;2022-08-21T03:29:19;89536.78;;;19.16;76.29
17821;BME280;9035;42.554;23.188;2022-08-21T03:31:46;89535.28;;;19.15;76.55
17821;BME280;9035;42.554;23.188;2022-08-21T03:34:13;89537.53;;;19.16;76.80
17821;BME280;9035;42.554;23.188;2022-08-21T03:36:39;89537.53;;;19.06;77.89
17821;BME280;9035;42.554;23.188;2022-08-21T03:39:08;89551.78;;;19.08;77.65
17821;BME280;9035;42.554;23.188;2022-08-21T03:41:35;89553.31;;;19.02;78.57
17821;BME280;9035;42.554;23.188;2022-08-21T03:44:02;89541.34;;;18.98;78.13
17821;BME280;9035;42.554;23.188;2022-08-21T03:46:29;89548.44;;;19.08;77.39
17821;BME280;9035;42.554;23.188;2022-08-21T03:48:55;89546.94;;;19.10;77.32
17821;BME280;9035;42.554;23.188;2022-08-21T03:51:22;89557.78;;;19.09;77.30
17821;BME280;9035;42.554;23.188;2022-08-21T03:53:49;89543.53;;;19.06;77.21
17821;BME280;9035;42.554;23.188;2022-08-21T03:56:17;89527.06;;;18.99;77.05
17821;BME280;9035;42.554;23.188;2022-08-21T03:58:44;89536.06;;;18.98;77.77
17821;BME280;9035;42.554;23.188;2022-08-21T04:01:11;89548.03;;;19.09;77.23
17821;BME280;9035;42.554;23.188;2022-08-21T04:03:38;89547.66;;;19.14;76.74
17821;BME280;9035;42.554;23.188;2022-08-21T04:06:06;89545.03;;;19.07;77.03
17821;BME280;9035;42.554;23.188;2022-08-21T04:08:33;89545.41;;;19.09;77.01
17821;BME280;9035;42.554;23.188;2022-08-21T04:11:00;89549.19;;;19.05;77.16
17821;BME280;9035;42.554;23.188;2022-08-21T04:13:28;89558.56;;;19.09;77.08
17821;BME280;9035;42.554;23.188;2022-08-21T04:15:56;89565.31;;;19.14;75.83
17821;BME280;9035;42.554;23.188;2022-08-21T04:18:23;89561.56;;;19.08;76.22
17821;BME280;9035;42.554;23.188;2022-08-21T04:20:52;89562.72;;;19.03;76.95
17821;BME280;9035;42.554;23.188;2022-08-21T04:23:20;89556.34;;;18.94;77.10
17821;BME280;9035;42.554;23.188;2022-08-21T04:25:47;89564.94;;;19.05;76.34
17821;BME280;9035;42.554;23.188;2022-08-21T04:28:14;89566.09;;;19.00;76.22
17821;BME280;9035;42.554;23.188;2022-08-21T04:30:42;89574.34;;;19.02;75.94
17821;BME280;9035;42.554;23.188;2022-08-21T04:33:09;89577.75;;;18.92;76.02
17821;BME280;9035;42.554;23.188;2022-08-21T04:35:35;89574.03;;;18.90;76.45
17821;BME280;9035;42.554;23.188;2022-08-21T04:38:02;89577.44;;;18.73;77.80
17821;BME280;9035;42.554;23.188;2022-08-21T04:40:29;89567.69;;;18.73;77.82
17821;BME280;9035;42.554;23.188;2022-08-21T04:43:00;89572.13;;;18.90;77.28
17821;BME280;9035;42.554;23.188;2022-08-21T04:45:30;89572.50;;;18.92;76.68
17821;BME280;9035;42.554;23.188;2022-08-21T04:48:01;89574.75;;;18.94;76.90
17821;BME280;9035;42.554;23.188;2022-08-21T04:50:36;89580.00;;;18.90;76.87
17821;BME280;9035;42.554;23.188;2022-08-21T04:53:05;89577.72;;;19.03;75.91
17821;BME280;9035;42.554;23.188;2022-08-21T04:55:34;89573.97;;;19.11;75.32
17821;BME280;9035;42.554;23.188;2022-08-21T04:58:02;89570.22;;;19.05;75.81
17821;BME280;9035;42.554;23.188;2022-08-21T05:00:29;89573.97;;;19.04;75.57
17821;BME280;9035;42.554;23.188;2022-08-21T05:02:58;89575.88;;;19.00;76.09
17821;BME280;9035;42.554;23.188;2022-08-21T05:05:27;89584.09;;;19.05;75.85
17821;BME280;9035;42.554;23.188;2022-08-21T05:07:55;89586.34;;;19.07;75.93
17821;BME280;9035;42.554;23.188;2022-08-21T05:10:23;89586.72;;;19.05;76.14
17821;BME280;9035;42.554;23.188;2022-08-21T05:12:49;89596.13;;;19.03;76.57
17821;BME280;9035;42.554;23.188;2022-08-21T05:15:17;89591.63;;;19.10;77.15
17821;BME280;9035;42.554;23.188;2022-08-21T05:17:43;89594.25;;;19.07;78.08
17821;BME280;9035;42.554;23.188;2022-08-21T05:20:13;89593.47;;;19.20;78.33
17821;BME280;9035;42.554;23.188;2022-08-21T05:22:40;89582.56;;;19.22;78.21
17821;BME280;9035;42.554;23.188;2022-08-21T05:25:08;89575.75;;;19.28;78.39
17821;BME280;9035;42.554;23.188;2022-08-21T05:27:35;89573.88;;;19.35;78.72
17821;BME280;9035;42.554;23.188;2022-08-21T05:30:03;89576.47;;;19.42;78.74
17821;BME280;9035;42.554;23.188;2022-08-21T05:32:30;89566.25;;;19.54;78.32
17821;BME280;9035;42.554;23.188;2022-08-21T05:34:57;89570.72;;;19.61;78.25
17821;BME280;9035;42.554;23.188;2022-08-21T05:37:25;89567.34;;;19.60;78.47
17821;BME280;9035;42.554;23.188;2022-08-21T05:39:52;89568.50;;;19.52;78.70
17821;BME280;9035;42.554;23.188;2022-08-21T05:42:18;89572.59;;;19.60;77.73
17821;BME280;9035;42.554;23.188;2022-08-21T05:44:45;89564.75;;;19.53;78.61
17821;BME280;9035;42.554;23.188;2022-08-21T05:47:12;89570.34;;;19.59;78.88
17821;BME280;9035;42.554;23.188;2022-08-21T05:49:38;89577.06;;;19.67;77.87
17821;BME280;9035;42.554;23.188;2022-08-21T05:52:05;89561.59;;;19.76;78.42
17821;BME280;9035;42.554;23.188;2022-08-21T05:54:35;89574.50;;;19.56;80.38
17821;BME280;9035;42.554;23.188;2022-08-21T05:57:03;89575.09;;;19.85;78.57
17821;BME280;9035;42.554;23.188;2022-08-21T05:59:29;89580.28;;;19.95;78.44
17821;BME280;9035;42.554;23.188;2022-08-21T06:01:56;89572.03;;;19.90;77.93
17821;BME280;9035;42.554;23.188;2022-08-21T06:04:23;89578.41;;;19.96;76.59
17821;BME280;9035;42.554;23.188;2022-08-21T06:06:49;89575.03;;;19.92;77.80
17821;BME280;9035;42.554;23.188;2022-08-21T06:09:16;89578.03;;;19.97;76.94
17821;BME280;9035;42.554;23.188;2022-08-21T06:11:45;89578.31;;;20.10;76.18
17821;BME280;9035;42.554;23.188;2022-08-21T06:14:13;89564.78;;;20.08;73.86
17821;BME280;9035;42.554;23.188;2022-08-21T06:16:41;89573.44;;;20.08;74.47
17821;BME280;9035;42.554;23.188;2022-08-21T06:19:07;89568.59;;;20.03;75.63
17821;BME280;9035;42.554;23.188;2022-08-21T06:21:34;89568.91;;;20.12;76.03
17821;BME280;9035;42.554;23.188;2022-08-21T06:24:01;89562.84;;;20.18;76.09
17821;BME280;9035;42.554;23.188;2022-08-21T06:26:28;89562.38;;;20.27;76.84
17821;BME280;9035;42.554;23.188;2022-08-21T06:28:56;89569.41;;;20.40;75.67
17821;BME280;9035;42.554;23.188;2022-08-21T06:31:25;89561.47;;;20.44;76.56
17821;BME280;9035;42.554;23.188;2022-08-21T06:33:53;89558.41;;;20.49;76.17
17821;BME280;9035;42.554;23.188;2022-08-21T06:36:20;89561.91;;;20.39;77.09
17821;BME280;9035;42.554;23.188;2022-08-21T06:38:47;89569.97;;;20.62;77.69
17821;BME280;9035;42.554;23.188;2022-08-21T06:41:14;89570.34;;;20.64;77.23
17821;BME280;9035;42.554;23.188;2022-08-21T06:43:41;89568.31;;;20.75;76.64
17821;BME280;9035;42.554;23.188;2022-08-21T06:46:09;89575.13;;;20.72;76.09
17821;BME280;9035;42.554;23.188;2022-08-21T06:48:36;89571.28;;;20.84;75.68
17821;BME280;9035;42.554;23.188;2022-08-21T06:51:03;89571.94;;;20.95;76.06
17821;BME280;9035;42.554;23.188;2022-08-21T06:53:30;89577.81;;;21.05;72.94
17821;BME280;9035;42.554;23.188;2022-08-21T06:55:57;89576.25;;;21.11;73.28
17821;BME280;9035;42.554;23.188;2022-08-21T06:58:23;89570.78;;;21.29;75.80
17821;BME280;9035;42.554;23.188;2022-08-21T07:00:50;89583.97;;;21.29;76.28
17821;BME280;9035;42.554;23.188;2022-08-21T07:03:24;89579.41;;;21.33;76.18
17821;BME280;9035;42.554;23.188;2022-08-21T07:05:53;89590.22;;;21.08;76.14
17821;BME280;9035;42.554;23.188;2022-08-21T07:08:20;89580.59;;;21.28;73.63
17821;BME280;9035;42.554;23.188;2022-08-21T07:10:48;89579.88;;;21.24;69.52
17821;BME280;9035;42.554;23.188;2022-08-21T07:13:16;89569.69;;;21.26;68.67
17821;BME280;9035;42.554;23.188;2022-08-21T07:15:43;89571.53;;;21.29;69.23
17821;BME280;9035;42.554;23.188;2022-08-21T07:18:11;89570.22;;;21.44;67.73
17821;BME280;9035;42.554;23.188;2022-08-21T07:20:40;89564.03;;;21.58;66.57
17821;BME280;9035;42.554;23.188;2022-08-21T07:23:09;89564.59;;;21.42;67.16
17821;BME280;9035;42.554;23.188;2022-08-21T07:25:36;89568.91;;;21.59;66.33
17821;BME280;9035;42.554;23.188;2022-08-21T07:28:03;89559.50;;;21.58;67.66
17821;BME280;9035;42.554;23.188;2022-08-21T07:30:32;89551.13;;;21.63;69.39
17821;BME280;9035;42.554;23.188;2022-08-21T07:32:59;89561.56;;;21.74;70.34
17821;BME280;9035;42.554;23.188;2022-08-21T07:35:26;89554.13;;;21.91;72.84
17821;BME280;9035;42.554;23.188;2022-08-21T07:37:54;89559.81;;;21.90;76.14
17821;BME280;9035;42.554;23.188;2022-08-21T07:40:21;89564.25;;;21.70;76.68
17821;BME280;9035;42.554;23.188;2022-08-21T07:42:48;89566.19;;;21.66;77.11
17821;BME280;9035;42.554;23.188;2022-08-21T07:45:19;89561.78;;;21.56;78.38
17821;BME280;9035;42.554;23.188;2022-08-21T07:47:46;89562.16;;;21.84;78.96
17821;BME280;9035;42.554;23.188;2022-08-21T07:50:14;89560.00;;;22.02;77.40
17821;BME280;9035;42.554;23.188;2022-08-21T07:52:42;89556.53;;;22.09;75.94
17821;BME280;9035;42.554;23.188;2022-08-21T07:55:12;89562.75;;;21.95;76.77
17821;BME280;9035;42.554;23.188;2022-08-21T07:57:39;89567.94;;;22.02;76.06
17821;BME280;9035;42.554;23.188;2022-08-21T08:00:10;89566.13;;;22.22;73.51
17821;BME280;9035;42.554;23.188;2022-08-21T08:02:37;89559.56;;;22.34;74.32
17821;BME280;9035;42.554;23.188;2022-08-21T08:05:08;89562.16;;;22.11;71.17
17821;BME280;9035;42.554;23.188;2022-08-21T08:07:36;89548.50;;;21.89;73.32
17821;BME280;9035;42.554;23.188;2022-08-21T08:10:05;89560.91;;;21.92;72.17
17821;BME280;9035;42.554;23.188;2022-08-21T08:12:34;89567.34;;;22.18;74.28
17821;BME280;9035;42.554;23.188;2022-08-21T08:15:03;89559.28;;;22.25;75.30
17821;BME280;9035;42.554;23.188;2022-08-21T08:17:30;89552.16;;;22.48;73.84
17821;BME280;9035;42.554;23.188;2022-08-21T08:19:57;89561.09;;;22.77;73.19
17821;BME280;9035;42.554;23.188;2022-08-21T08:22:26;89563.53;;;22.87;69.25
17821;BME280;9035;42.554;23.188;2022-08-21T08:24:53;89562.84;;;23.06;69.92
17821;BME280;9035;42.554;23.188;2022-08-21T08:27:20;89562.81;;;22.87;68.40
17821;BME280;9035;42.554;23.188;2022-08-21T08:29:49;89563.59;;;23.07;70.42
17821;BME280;9035;42.554;23.188;2022-08-21T08:32:16;89560.66;;;23.01;69.54
17821;BME280;9035;42.554;23.188;2022-08-21T08:34:43;89558.66;;;23.28;68.47
17821;BME280;9035;42.554;23.188;2022-08-21T08:37:12;89556.84;;;23.25;66.28
17821;BME280;9035;42.554;23.188;2022-08-21T08:39:39;89551.78;;;23.11;66.95
17821;BME280;9035;42.554;23.188;2022-08-21T08:42:08;89547.19;;;23.35;64.92
17821;BME280;9035;42.554;23.188;2022-08-21T08:44:36;89557.63;;;23.42;62.76
17821;BME280;9035;42.554;23.188;2022-08-21T08:47:04;89558.41;;;23.42;62.34
17821;BME280;9035;42.554;23.188;2022-08-21T08:49:37;89557.34;;;23.36;62.43
17821;BME280;9035;42.554;23.188;2022-08-21T08:52:14;89558.41;;;23.42;62.50
17821;BME280;9035;42.554;23.188;2022-08-21T08:54:45;89560.25;;;23.61;63.12
17821;BME280;9035;42.554;23.188;2022-08-21T08:57:16;89555.81;;;23.93;63.80
17821;BME280;9035;42.554;23.188;2022-08-21T08:59:48;89565.38;;;24.07;63.16
17821;BME280;9035;42.554;23.188;2022-08-21T09:02:19;89562.47;;;24.17;62.27
17821;BME280;9035;42.554;23.188;2022-08-21T09:04:47;89559.28;;;24.41;67.73
17821;BME280;9035;42.554;23.188;2022-08-21T09:07:20;89561.28;;;24.53;66.14
17821;BME280;9035;42.554;23.188;2022-08-21T09:10:05;89565.16;;;24.49;64.71
17821;BME280;9035;42.554;23.188;2022-08-21T09:12:41;89561.09;;;24.44;63.45
17821;BME280;9035;42.554;23.188;2022-08-21T09:15:16;89563.47;;;24.07;63.91
17821;BME280;9035;42.554;23.188;2022-08-21T09:18:03;89561.09;;;23.77;64.32
17821;BME280;9035;42.554;23.188;2022-08-21T09:20:38;89563.59;;;23.65;64.13
17821;BME280;9035;42.554;23.188;2022-08-21T09:23:17;89557.47;;;23.87;64.39
17821;BME280;9035;42.554;23.188;2022-08-21T09:25:58;89551.06;;;24.04;63.70
17821;BME280;9035;42.554;23.188;2022-08-21T09:28:31;89552.38;;;23.77;63.47
17821;BME280;9035;42.554;23.188;2022-08-21T09:31:00;89550.28;;;24.04;63.41
17821;BME280;9035;42.554;23.188;2022-08-21T09:33:29;89550.22;;;24.07;62.82
17821;BME280;9035;42.554;23.188;2022-08-21T09:35:56;89550.06;;;24.30;60.47
17821;BME280;9035;42.554;23.188;2022-08-21T09:38:26;89522.38;;;24.31;60.83
17821;BME280;9035;42.554;23.188;2022-08-21T09:40:57;89548.63;;;24.45;60.46
17821;BME280;9035;42.554;23.188;2022-08-21T09:43:25;89555.88;;;24.41;59.74
17821;BME280;9035;42.554;23.188;2022-08-21T09:46:03;89551.31;;;24.73;59.52
17821;BME280;9035;42.554;23.188;2022-08-21T09:48:40;89541.81;;;25.04;59.86
17821;BME280;9035;42.554;23.188;2022-08-21T09:51:09;89545.72;;;25.15;58.19
17821;BME280;9035;42.554;23.188;2022-08-21T09:53:42;89551.41;;;25.30;58.36
17821;BME280;9035;42.554;23.188;2022-08-21T09:56:18;89551.88;;;25.53;57.05
17821;BME280;9035;42.554;23.188;2022-08-21T09:59:14;89545.94;;;25.62;52.96
17821;BME280;9035;42.554;23.188;2022-08-21T10:01:46;89536.66;;;25.41;53.53
17821;BME280;9035;42.554;23.188;2022-08-21T10:04:14;89535.94;;;25.53;54.01
17821;BME280;9035;42.554;23.188;2022-08-21T10:06:41;89527.97;;;25.53;54.17
17821;BME280;9035;42.554;23.188;2022-08-21T10:09:13;89530.03;;;25.74;55.97
17821;BME280;9035;42.554;23.188;2022-08-21T10:11:43;89529.28;;;25.74;55.22
17821;BME280;9035;42.554;23.188;2022-08-21T10:14:20;89531.47;;;25.91;53.45
17821;BME280;9035;42.554;23.188;2022-08-21T10:17:00;89526.97;;;25.76;53.90
17821;BME280;9035;42.554;23.188;2022-08-21T10:19:48;89527.00;;;26.00;55.32
17821;BME280;9035;42.554;23.188;2022-08-21T10:22:29;89529.53;;;26.04;53.28
17821;BME280;9035;42.554;23.188;2022-08-21T10:25:06;89515.75;;;26.21;53.78
17821;BME280;9035;42.554;23.188;2022-08-21T10:27:42;89521.47;;;26.32;54.79
17821;BME280;9035;42.554;23.188;2022-08-21T10:30:16;89509.75;;;26.55;57.00
17821;BME280;9035;42.554;23.188;2022-08-21T10:32:59;89514.00;;;26.65;56.34
17821;BME280;9035;42.554;23.188;2022-08-21T10:35:33;89508.78;;;26.61;53.20
17821;BME280;9035;42.554;23.188;2022-08-21T10:41:03;89501.28;;;26.81;50.00
17821;BME280;9035;42.554;23.188;2022-08-21T10:43:44;89497.75;;;26.84;48.70
17821;BME280;9035;42.554;23.188;2022-08-21T10:46:21;89503.50;;;26.95;48.94
17821;BME280;9035;42.554;23.188;2022-08-21T10:48:54;89497.13;;;26.80;48.02
17821;BME280;9035;42.554;23.188;2022-08-21T10:51:32;89500.44;;;26.84;50.30
17821;BME280;9035;42.554;23.188;2022-08-21T10:54:05;89489.47;;;26.82;51.03
17821;BME280;9035;42.554;23.188;2022-08-21T10:56:40;89495.78;;;26.97;52.68
17821;BME280;9035;42.554;23.188;2022-08-21T10:59:23;89489.41;;;26.94;52.08
17821;BME280;9035;42.554;23.188;2022-08-21T11:01:56;89485.25;;;27.06;49.45
17821;BME280;9035;42.554;23.188;2022-08-21T11:04:28;89482.41;;;27.22;50.73
17821;BME280;9035;42.554;23.188;2022-08-21T11:07:00;89483.16;;;27.44;50.23
17821;BME280;9035;42.554;23.188;2022-08-21T11:09:29;89482.28;;;27.68;50.64
17821;BME280;9035;42.554;23.188;2022-08-21T11:11:58;89479.78;;;27.52;47.47
17821;BME280;9035;42.554;23.188;2022-08-21T11:14:36;89481.28;;;27.74;47.10
17821;BME280;9035;42.554;23.188;2022-08-21T11:17:08;89468.19;;;27.89;46.32
17821;BME280;9035;42.554;23.188;2022-08-21T11:19:42;89475.91;;;27.96;47.04
17821;BME280;9035;42.554;23.188;2022-08-21T11:22:15;89473.59;;;28.16;45.00
17821;BME280;9035;42.554;23.188;2022-08-21T11:24:49;89473.00;;;28.12;45.58
17821;BME280;9035;42.554;23.188;2022-08-21T11:27:21;89475.09;;;28.17;46.73
17821;BME280;9035;42.554;23.188;2022-08-21T11:29:52;89471.75;;;28.25;47.36
17821;BME280;9035;42.554;23.188;2022-08-21T11:32:46;89468.88;;;28.20;48.78
17821;BME280;9035;42.554;23.188;2022-08-21T11:35:23;89480.22;;;28.42;47.85
17821;BME280;9035;42.554;23.188;2022-08-21T11:38:07;89475.38;;;28.49;46.98
17821;BME280;9035;42.554;23.188;2022-08-21T11:40:50;89474.00;;;28.36;46.99
17821;BME280;9035;42.554;23.188;2022-08-21T11:43:25;89482.09;;;28.23;45.88
17821;BME280;9035;42.554;23.188;2022-08-21T11:46:13;89472.56;;;28.13;47.08
17821;BME280;9035;42.554;23.188;2022-08-21T11:48:55;89472.69;;;28.10;46.18
17821;BME280;9035;42.554;23.188;2022-08-21T11:51:30;89478.09;;;27.88;45.24
17821;BME280;9035;42.554;23.188;2022-08-21T11:54:05;89471.34;;;27.75;45.54
17821;BME280;9035;42.554;23.188;2022-08-21T11:56:36;89471.03;;;27.64;47.07
17821;BME280;9035;42.554;23.188;2022-08-21T11:59:11;89462.31;;;27.51;46.07
17821;BME280;9035;42.554;23.188;2022-08-21T12:01:43;89464.97;;;27.51;46.67
17821;BME280;9035;42.554;23.188;2022-08-21T12:04:18;89462.75;;;27.50;47.69
17821;BME280;9035;42.554;23.188;2022-08-21T12:06:48;89465.63;;;27.34;45.42
17821;BME280;9035;42.554;23.188;2022-08-21T12:09:32;89468.47;;;27.39;45.93
17821;BME280;9035;42.554;23.188;2022-08-21T12:12:03;89459.72;;;27.39;47.20
17821;BME280;9035;42.554;23.188;2022-08-21T12:14:37;89465.38;;;27.41;47.71
17821;BME280;9035;42.554;23.188;2022-08-21T12:17:06;89461.22;;;27.40;49.62
17821;BME280;9035;42.554;23.188;2022-08-21T12:19:33;89469.91;;;27.31;47.60
17821;BME280;9035;42.554;23.188;2022-08-21T12:22:09;89468.41;;;27.30;47.86
17821;BME280;9035;42.554;23.188;2022-08-21T12:24:40;89473.56;;;27.25;49.15
17821;BME280;9035;42.554;23.188;2022-08-21T12:27:20;89455.03;;;27.21;47.98
17821;BME280;9035;42.554;23.188;2022-08-21T12:29:52;89463.34;;;27.23;47.57
17821;BME280;9035;42.554;23.188;2022-08-21T12:32:25;89466.78;;;27.11;47.99
17821;BME280;9035;42.554;23.188;2022-08-21T12:34:55;89466.66;;;27.15;48.94
17821;BME280;9035;42.554;23.188;2022-08-21T12:37:33;89460.94;;;27.16;49.55
17821;BME280;9035;42.554;23.188;2022-08-21T12:40:04;89466.78;;;27.11;49.87
17821;BME280;9035;42.554;23.188;2022-08-21T12:42:39;89468.56;;;26.93;50.98
17821;BME280;9035;42.554;23.188;2022-08-21T12:45:16;89471.41;;;26.98;50.53
17821;BME280;9035;42.554;23.188;2022-08-21T12:47:47;89458.94;;;26.74;50.56
17821;BME280;9035;42.554;23.188;2022-08-21T12:50:19;89462.72;;;26.85;49.82
17821;BME280;9035;42.554;23.188;2022-08-21T12:52:54;89459.50;;;26.69;50.67
17821;BME280;9035;42.554;23.188;2022-08-21T12:55:28;89466.91;;;26.74;50.93
17821;BME280;9035;42.554;23.188;2022-08-21T12:57:56;89447.97;;;26.72;52.52
17821;BME280;9035;42.554;23.188;2022-08-21T13:00:25;89465.25;;;26.89;51.59
17821;BME280;9035;42.554;23.188;2022-08-21T13:02:53;89468.75;;;26.98;51.60
17821;BME280;9035;42.554;23.188;2022-08-21T13:05:28;89472.94;;;27.21;51.32
17821;BME280;9035;42.554;23.188;2022-08-21T13:07:56;89471.78;;;27.73;50.80
17821;BME280;9035;42.554;23.188;2022-08-21T13:10:27;89458.56;;;28.22;50.41
17821;BME280;9035;42.554;23.188;2022-08-21T13:12:56;89451.72;;;28.87;49.65
17821;BME280;9035;42.554;23.188;2022-08-21T13:15:26;89449.19;;;31.54;42.75